createdAt,value
2023-01-06T00:00:17.284Z,5.13
2023-01-06T00:03:20.265Z,8.90
2023-01-06T00:06:27.404Z,5.77
2023-01-06T00:09:33.912Z,4.17
2023-01-06T00:12:37.860Z,7.17
2023-01-06T00:15:40.845Z,8.37
2023-01-06T00:18:44.332Z,8.00
2023-01-06T00:21:47.293Z,5.30
2023-01-06T00:24:51.587Z,8.90
2023-01-06T00:27:55.606Z,10.20
2023-01-06T00:30:58.671Z,6.53
2023-01-06T00:34:01.633Z,8.20
2023-01-06T00:37:05.026Z,7.87
2023-01-06T00:40:10.739Z,7.17
2023-01-06T00:43:13.706Z,9.67
2023-01-06T00:46:16.762Z,11.43
2023-01-06T00:49:19.794Z,11.20
2023-01-06T00:52:22.844Z,11.27
2023-01-06T00:55:27.324Z,9.90
2023-01-06T00:58:31.133Z,13.37
2023-01-06T01:01:35.109Z,8.47
2023-01-06T01:04:38.151Z,11.00
2023-01-06T01:07:41.521Z,10.00
2023-01-06T01:10:45.892Z,13.60
2023-01-06T01:13:48.852Z,10.90
2023-01-06T01:16:52.279Z,13.27
2023-01-06T01:19:57.690Z,9.67
2023-01-06T01:23:00.638Z,16.67
2023-01-06T01:26:04.956Z,9.23
2023-01-06T01:29:08.638Z,10.37
2023-01-06T01:32:12.050Z,8.37
2023-01-06T01:35:15.469Z,5.33
2023-01-06T01:38:18.420Z,7.73
2023-01-06T01:41:23.769Z,8.53
2023-01-06T01:45:03.458Z,8.27
2023-01-06T01:48:14.393Z,7.87
2023-01-06T01:51:21.591Z,8.70
2023-01-06T01:54:29.272Z,8.17
2023-01-06T01:57:39.760Z,8.53
2023-01-06T02:00:44.935Z,6.87
2023-01-06T02:03:48.113Z,11.20
2023-01-06T02:06:52.016Z,6.60
2023-01-06T02:10:03.574Z,8.83
2023-01-06T02:13:07.966Z,9.10
2023-01-06T02:16:19.757Z,5.70
2023-01-06T02:19:55.964Z,7.80
2023-01-06T02:23:23.126Z,7.63
2023-01-06T02:26:53.359Z,7.70
2023-01-06T02:30:30.600Z,6.03
2023-01-06T02:33:42.297Z,6.17
2023-01-06T02:36:53.327Z,7.63
2023-01-06T02:40:10.339Z,7.00
2023-01-06T02:43:22.666Z,8.23
2023-01-06T02:46:36.826Z,7.07
2023-01-06T02:49:46.540Z,7.40
2023-01-06T02:52:57.085Z,10.27
2023-01-06T02:56:00.719Z,9.23
2023-01-06T02:59:08.138Z,9.03
2023-01-06T03:02:12.820Z,6.87
2023-01-06T03:05:18.813Z,8.33
2023-01-06T03:08:27.124Z,9.50
2023-01-06T03:11:33.431Z,12.27
2023-01-06T03:14:42.546Z,10.70
2023-01-06T03:17:45.866Z,7.93
2023-01-06T03:20:51.880Z,9.97
2023-01-06T03:23:54.966Z,9.77
2023-01-06T03:26:59.351Z,10.20
2023-01-06T03:30:03.802Z,11.00
2023-01-06T03:33:13.993Z,9.60
2023-01-06T03:36:25.882Z,9.23
2023-01-06T03:39:36.436Z,10.03
2023-01-06T03:43:00.435Z,10.13
2023-01-06T03:46:16.789Z,8.87
2023-01-06T03:49:29.588Z,10.50
2023-01-06T03:52:40.549Z,9.53
2023-01-06T03:55:47.751Z,13.00
2023-01-06T03:58:55.385Z,9.17
2023-01-06T04:01:58.881Z,11.67
2023-01-06T04:05:08.478Z,13.60
2023-01-06T04:08:12.792Z,11.57
2023-01-06T04:11:29.857Z,13.73
2023-01-06T04:14:32.814Z,17.90
2023-01-06T04:17:36.137Z,15.20
2023-01-06T04:20:39.103Z,14.87
2023-01-06T04:23:43.507Z,13.27
2023-01-06T04:26:46.505Z,13.97
2023-01-06T04:29:49.487Z,11.53
2023-01-06T04:32:52.465Z,15.10
2023-01-06T04:35:55.497Z,11.53
2023-01-06T04:38:59.827Z,11.50
2023-01-06T04:42:02.792Z,13.47
2023-01-06T04:45:06.442Z,14.57
2023-01-06T04:48:10.106Z,13.70
2023-01-06T04:51:13.203Z,14.67
2023-01-06T04:54:17.550Z,14.27
2023-01-06T04:57:20.495Z,16.27
2023-01-06T05:00:23.505Z,15.17
2023-01-06T05:03:26.460Z,19.70
2023-01-06T05:06:29.641Z,16.67
2023-01-06T05:09:33.990Z,21.73
2023-01-06T05:12:37.099Z,19.73
2023-01-06T05:15:40.267Z,14.57
2023-01-06T05:18:43.522Z,16.70
2023-01-06T05:21:46.513Z,15.00
2023-01-06T05:24:50.864Z,14.83
2023-01-06T05:27:53.877Z,17.83
2023-01-06T05:31:00.691Z,11.33
2023-01-06T05:34:03.665Z,14.47
2023-01-06T05:37:06.622Z,13.77
2023-01-06T05:40:12.055Z,13.57
2023-01-06T05:43:15.031Z,14.23
2023-01-06T05:46:18.074Z,10.73
2023-01-06T05:49:21.069Z,12.60
2023-01-06T05:52:24.078Z,14.13
2023-01-06T05:55:28.400Z,11.87
2023-01-06T05:58:33.315Z,9.93
2023-01-06T06:01:36.374Z,13.73
2023-01-06T06:04:39.376Z,12.93
2023-01-06T06:07:42.373Z,12.27
2023-01-06T06:10:46.694Z,13.27
2023-01-06T06:13:50.981Z,12.87
2023-01-06T06:16:55.514Z,13.87
2023-01-06T06:19:58.480Z,12.70
2023-01-06T06:23:01.443Z,12.37
2023-01-06T06:26:06.227Z,17.20
2023-01-06T06:29:09.307Z,16.00
2023-01-06T06:32:12.292Z,14.60
2023-01-06T06:35:15.398Z,14.23
2023-01-06T06:38:18.383Z,13.67
2023-01-06T06:41:24.037Z,13.87
2023-01-06T06:44:27.011Z,15.23
2023-01-06T06:47:30.056Z,14.70
2023-01-06T06:50:33.009Z,12.60
2023-01-06T06:53:36.507Z,13.53
2023-01-06T06:56:40.827Z,13.83
2023-01-06T06:59:43.797Z,13.57
2023-01-06T07:02:49.434Z,15.60
2023-01-06T07:05:53.712Z,16.07
2023-01-06T07:08:56.688Z,15.27
2023-01-06T07:12:01.025Z,14.10
2023-01-06T07:15:04.060Z,13.53
2023-01-06T07:18:07.727Z,12.07
2023-01-06T07:21:10.700Z,11.30
2023-01-06T07:24:13.734Z,13.77
2023-01-06T07:27:18.087Z,12.33
2023-01-06T07:30:21.070Z,12.37
2023-01-06T07:33:24.081Z,10.97
2023-01-06T07:36:27.171Z,10.53
2023-01-06T07:39:30.134Z,9.83
2023-01-06T07:42:35.859Z,10.23
2023-01-06T07:45:39.302Z,10.33
2023-01-06T07:48:42.297Z,13.80
2023-01-06T07:51:45.257Z,11.40
2023-01-06T07:54:48.386Z,12.70
2023-01-06T07:57:52.713Z,10.13
2023-01-06T08:00:55.713Z,11.17
2023-01-06T08:03:58.728Z,9.73
2023-01-06T08:07:01.712Z,9.97
2023-01-06T08:10:05.466Z,11.13
2023-01-06T08:13:10.408Z,11.37
2023-01-06T08:16:14.417Z,10.73
2023-01-06T08:19:17.487Z,8.40
2023-01-06T08:22:20.472Z,7.87
2023-01-06T08:25:23.481Z,10.37
2023-01-06T08:28:28.887Z,7.03
2023-01-06T08:31:32.131Z,6.70
2023-01-06T08:34:35.173Z,6.70
2023-01-06T08:37:38.173Z,7.10
2023-01-06T08:40:41.156Z,5.70
2023-01-06T08:43:47.302Z,6.50
2023-01-06T08:46:50.336Z,10.13
2023-01-06T08:49:53.332Z,6.37
2023-01-06T08:52:56.341Z,6.07
2023-01-06T08:55:59.644Z,6.50
2023-01-06T08:59:05.354Z,8.97
2023-01-06T09:02:09.979Z,6.73
2023-01-06T09:05:13.116Z,5.60
2023-01-06T09:08:16.161Z,5.73
2023-01-06T09:11:19.320Z,6.17
2023-01-06T09:14:23.767Z,5.83
2023-01-06T09:17:26.750Z,5.60
2023-01-06T09:20:29.725Z,5.57
2023-01-06T09:23:33.386Z,5.50
2023-01-06T09:26:36.407Z,6.53
2023-01-06T09:29:40.728Z,7.97
2023-01-06T09:32:43.760Z,5.07
2023-01-06T09:35:47.147Z,7.23
2023-01-06T09:38:50.172Z,5.30
2023-01-06T09:42:15.660Z,6.53
2023-01-06T09:45:21.572Z,6.37
2023-01-06T09:48:29.069Z,4.87
2023-01-06T09:51:33.998Z,4.60
2023-01-06T09:54:41.311Z,4.60
2023-01-06T09:57:49.821Z,3.83
2023-01-06T10:00:56.791Z,3.90
2023-01-06T10:04:00.643Z,4.23
2023-01-06T10:07:16.558Z,3.63
2023-01-06T10:10:28.220Z,3.10
2023-01-06T10:13:43.312Z,3.43
2023-01-06T10:17:01.504Z,3.27
2023-01-06T10:20:14.393Z,3.20
2023-01-06T10:23:45.566Z,3.20
2023-01-06T10:26:56.504Z,4.33
2023-01-06T10:30:02.369Z,3.77
2023-01-06T10:33:07.189Z,3.83
2023-01-06T10:36:14.502Z,3.57
2023-01-06T10:39:20.870Z,3.93
2023-01-06T10:42:58.900Z,5.23
2023-01-06T10:46:01.893Z,4.23
2023-01-06T10:49:12.845Z,5.43
2023-01-06T10:52:16.122Z,5.60
2023-01-06T10:55:36.527Z,5.00
2023-01-06T10:58:46.231Z,3.87
2023-01-06T11:01:51.467Z,3.70
2023-01-06T11:05:01.840Z,4.30
2023-01-06T11:08:08.336Z,3.83
2023-01-06T11:11:27.182Z,3.50
2023-01-06T11:14:33.085Z,3.23
2023-01-06T11:17:37.113Z,2.67
2023-01-06T11:20:41.441Z,2.33
2023-01-06T11:23:46.573Z,2.00
2023-01-06T11:26:54.028Z,2.87
2023-01-06T11:29:57.069Z,2.97
2023-01-06T11:33:00.107Z,2.63
2023-01-06T11:36:11.034Z,1.83
2023-01-06T11:39:17.942Z,1.67
2023-01-06T11:42:21.647Z,3.00
2023-01-06T11:45:35.008Z,4.73
2023-01-06T11:48:43.683Z,1.90
2023-01-06T11:51:50.243Z,1.47
2023-01-06T11:55:00.754Z,1.60
2023-01-06T11:58:11.465Z,3.67
2023-01-06T12:01:21.981Z,3.30
2023-01-06T12:04:32.455Z,1.90
2023-01-06T12:07:44.110Z,2.30
2023-01-06T12:10:52.334Z,1.83
2023-01-06T12:14:13.122Z,3.13
2023-01-06T12:17:31.545Z,2.37
2023-01-06T12:20:38.639Z,2.47
2023-01-06T12:23:45.164Z,2.70
2023-01-06T12:26:48.960Z,5.83
2023-01-06T12:29:53.494Z,2.23
2023-01-06T12:33:00.518Z,1.90
2023-01-06T12:36:06.412Z,2.60
2023-01-06T12:39:18.487Z,2.73
2023-01-06T12:42:28.485Z,0.47
2023-01-06T12:45:39.375Z,2.30
2023-01-06T12:48:48.989Z,5.47
2023-01-06T12:51:55.408Z,2.57
2023-01-06T12:55:01.495Z,1.13
2023-01-06T12:58:12.494Z,2.00
2023-01-06T13:01:21.469Z,5.10
2023-01-06T13:04:53.229Z,4.13
2023-01-06T13:08:06.167Z,2.87
2023-01-06T13:11:20.125Z,4.83
2023-01-06T13:14:31.232Z,2.57
2023-01-06T13:17:41.395Z,2.83
2023-01-06T13:20:48.098Z,2.47
2023-01-06T13:24:12.784Z,3.00
2023-01-06T13:27:53.729Z,1.27
2023-01-06T13:31:12.902Z,4.00
2023-01-06T13:34:48.974Z,3.13
2023-01-06T13:38:02.884Z,1.47
2023-01-06T13:41:12.778Z,2.23
2023-01-06T13:44:21.231Z,3.80
2023-01-06T13:47:25.416Z,2.03
2023-01-06T13:50:29.513Z,1.53
2023-01-06T13:53:39.919Z,4.70
2023-01-06T13:56:42.969Z,3.50
2023-01-06T13:59:51.457Z,3.97
2023-01-06T14:03:16.277Z,4.23
2023-01-06T14:06:46.842Z,4.33
2023-01-06T14:09:51.130Z,2.47
2023-01-06T14:12:55.197Z,2.33
2023-01-06T14:16:04.517Z,3.97
2023-01-06T14:19:09.296Z,2.10
2023-01-06T14:22:18.006Z,2.53
2023-01-06T14:25:24.488Z,3.70
2023-01-06T14:28:31.208Z,4.77
2023-01-06T14:31:44.348Z,4.20
2023-01-06T14:34:53.118Z,3.13
2023-01-06T14:38:00.580Z,3.93
2023-01-06T14:41:06.085Z,5.10
2023-01-06T14:44:14.748Z,2.53
2023-01-06T14:47:28.265Z,3.40
2023-01-06T14:50:46.116Z,3.17
2023-01-06T14:54:04.069Z,5.27
2023-01-06T14:57:07.654Z,4.77
2023-01-06T15:00:16.374Z,3.07
2023-01-06T15:03:23.059Z,3.90
2023-01-06T15:06:27.867Z,4.17
2023-01-06T15:09:30.869Z,1.37
2023-01-06T15:12:34.496Z,4.70
2023-01-06T15:15:38.667Z,2.50
2023-01-06T15:18:46.013Z,4.03
2023-01-06T15:21:51.173Z,7.10
2023-01-06T15:24:55.297Z,1.07
2023-01-06T15:27:58.443Z,3.90
2023-01-06T15:31:03.015Z,4.03
2023-01-06T15:34:10.376Z,4.43
2023-01-06T15:37:19.353Z,4.90
2023-01-06T15:40:23.719Z,5.67
2023-01-06T15:43:28.973Z,6.83
2023-01-06T15:46:40.912Z,3.57
2023-01-06T15:49:51.419Z,2.40
2023-01-06T15:52:56.077Z,9.03
2023-01-06T15:56:02.185Z,3.97
2023-01-06T15:59:05.252Z,3.60
2023-01-06T16:02:18.470Z,3.73
2023-01-06T16:05:39.606Z,4.13
2023-01-06T16:08:44.093Z,2.83
2023-01-06T16:11:58.982Z,4.47
2023-01-06T16:15:45.462Z,3.23
2023-01-06T16:18:48.604Z,2.73
2023-01-06T16:21:53.493Z,3.20
2023-01-06T16:24:56.505Z,1.80
2023-01-06T16:28:03.247Z,3.57
2023-01-06T16:31:10.643Z,3.37
2023-01-06T16:34:18.301Z,2.57
2023-01-06T16:37:21.442Z,3.50
2023-01-06T16:40:26.369Z,4.00
2023-01-06T16:43:29.347Z,3.93
2023-01-06T16:46:33.731Z,3.63
2023-01-06T16:49:36.716Z,3.33
2023-01-06T16:52:39.701Z,3.63
2023-01-06T16:55:43.415Z,4.23
2023-01-06T16:58:46.533Z,2.83
2023-01-06T17:01:50.952Z,3.23
2023-01-06T17:04:54.039Z,2.30
2023-01-06T17:08:00.530Z,2.50
2023-01-06T17:11:13.486Z,3.93
2023-01-06T17:14:18.140Z,7.17
2023-01-06T17:17:23.111Z,2.63
2023-01-06T17:20:26.083Z,4.30
2023-01-06T17:23:29.185Z,2.77
2023-01-06T17:26:32.173Z,5.80
2023-01-06T17:29:37.969Z,3.17
2023-01-06T17:32:44.784Z,2.63
2023-01-06T17:35:50.111Z,3.30
2023-01-06T17:38:53.577Z,4.60
2023-01-06T17:42:03.348Z,4.87
2023-01-06T17:45:15.085Z,2.53
2023-01-06T17:48:19.549Z,4.87
2023-01-06T17:51:22.610Z,5.37
2023-01-06T17:54:44.812Z,5.07
2023-01-06T17:57:48.037Z,3.83
2023-01-06T18:00:51.075Z,5.27
2023-01-06T18:03:58.843Z,2.60
2023-01-06T18:07:03.201Z,8.53
2023-01-06T18:10:14.820Z,6.13
2023-01-06T18:13:19.757Z,5.57
2023-01-06T18:16:35.163Z,4.47
2023-01-06T18:19:39.868Z,4.70
2023-01-06T18:22:42.908Z,4.97
2023-01-06T18:25:46.010Z,5.67
2023-01-06T18:28:49.014Z,6.77
2023-01-06T18:31:54.100Z,10.97
2023-01-06T18:34:59.508Z,5.20
2023-01-06T18:38:03.808Z,6.53
2023-01-06T18:41:12.339Z,5.17
2023-01-06T18:44:19.424Z,8.00
2023-01-06T18:47:24.277Z,5.80
2023-01-06T18:50:32.625Z,9.00
2023-01-06T18:53:43.049Z,6.17
2023-01-06T18:56:46.235Z,4.03
2023-01-06T18:59:49.257Z,4.20
2023-01-06T19:02:52.837Z,6.30
2023-01-06T19:06:07.221Z,4.27
2023-01-06T19:09:26.455Z,5.53
2023-01-06T19:12:32.243Z,5.03
2023-01-06T19:15:35.384Z,3.50
2023-01-06T19:18:38.894Z,4.67
2023-01-06T19:21:43.708Z,6.90
2023-01-06T19:24:49.703Z,6.90
2023-01-06T19:27:55.795Z,6.67
2023-01-06T19:30:59.688Z,5.33
2023-01-06T19:34:06.028Z,5.90
2023-01-06T19:37:16.836Z,6.03
2023-01-06T19:40:26.276Z,6.33
2023-01-06T19:43:31.311Z,7.17
2023-01-06T19:46:38.532Z,2.87
2023-01-06T19:49:45.152Z,7.30
2023-01-06T19:52:52.914Z,4.60
2023-01-06T19:55:56.019Z,6.13
2023-01-06T19:59:00.808Z,5.17
2023-01-06T20:02:25.965Z,7.43
2023-01-06T20:05:31.574Z,6.73
2023-01-06T20:08:35.928Z,6.90
2023-01-06T20:11:39.085Z,6.70
2023-01-06T20:14:42.063Z,9.27
2023-01-06T20:17:45.111Z,6.93
2023-01-06T20:20:48.072Z,5.73
2023-01-06T20:23:52.387Z,7.20
2023-01-06T20:26:55.337Z,7.03
2023-01-06T20:29:58.367Z,8.03
2023-01-06T20:33:02.082Z,7.60
2023-01-06T20:36:07.204Z,8.47
2023-01-06T20:39:14.994Z,5.00
2023-01-06T20:42:17.993Z,5.30
2023-01-06T20:45:21.206Z,4.43
2023-01-06T20:48:24.192Z,5.60
2023-01-06T20:51:27.177Z,3.87
2023-01-06T20:54:31.612Z,5.23
2023-01-06T20:57:34.593Z,5.97
2023-01-06T21:00:37.568Z,8.27
2023-01-06T21:03:40.552Z,4.20
2023-01-06T21:06:44.388Z,5.57
2023-01-06T21:09:48.712Z,3.63
2023-01-06T21:12:51.726Z,3.43
2023-01-06T21:15:54.715Z,5.17
2023-01-06T21:18:58.316Z,7.97
2023-01-06T21:22:01.297Z,4.20
2023-01-06T21:25:06.347Z,5.20
2023-01-06T21:28:09.350Z,3.10
2023-01-06T21:31:12.354Z,7.40
2023-01-06T21:34:15.471Z,6.03
2023-01-06T21:37:18.713Z,4.37
2023-01-06T21:40:23.147Z,6.00
2023-01-06T21:43:25.159Z,5.83
2023-01-06T21:46:28.369Z,6.07
2023-01-06T21:49:31.471Z,5.20
2023-01-06T21:52:34.458Z,4.90
2023-01-06T21:55:40.989Z,5.50
2023-01-06T21:58:43.993Z,3.20
2023-01-06T22:01:47.077Z,5.93
2023-01-06T22:04:52.389Z,4.80
2023-01-06T22:07:55.511Z,1.97
2023-01-06T22:11:00.292Z,2.90
2023-01-06T22:14:03.555Z,3.03
2023-01-06T22:17:07.043Z,3.20
2023-01-06T22:20:11.670Z,7.50
2023-01-06T22:23:18.683Z,4.67
2023-01-06T22:26:23.008Z,7.30
2023-01-06T22:29:26.356Z,7.53
2023-01-06T22:32:29.467Z,4.10
2023-01-06T22:35:32.468Z,4.77
2023-01-06T22:38:35.470Z,8.30
2023-01-06T22:41:39.885Z,5.27
2023-01-06T22:44:42.992Z,3.50
2023-01-06T22:47:46.021Z,4.87
2023-01-06T22:50:56.640Z,6.33
2023-01-06T22:53:59.958Z,7.17
2023-01-06T22:57:04.476Z,7.00
2023-01-06T23:00:12.563Z,4.30
2023-01-06T23:03:15.567Z,4.07
2023-01-06T23:06:18.681Z,5.13
2023-01-06T23:09:21.701Z,6.50
2023-01-06T23:12:26.015Z,15.30
2023-01-06T23:15:29.072Z,5.03
2023-01-06T23:18:33.039Z,6.80
2023-01-06T23:21:36.132Z,6.97
2023-01-06T23:24:39.108Z,6.97
2023-01-06T23:27:43.466Z,8.40
2023-01-06T23:30:46.585Z,3.27
2023-01-06T23:33:53.012Z,5.83
2023-01-06T23:36:55.987Z,4.37
2023-01-06T23:39:59.010Z,3.90
2023-01-06T23:43:03.729Z,7.40
2023-01-06T23:46:08.989Z,10.50
2023-01-06T23:49:13.796Z,4.33
2023-01-06T23:52:16.783Z,7.77
2023-01-06T23:55:19.810Z,4.20
2023-01-06T23:58:24.140Z,5.00
